CYDN

Details ICAO CYDN (YDN)
Name DAUPHIN BARKER
Region Canada
Timezone America/Winnipeg (UTC-5.0)
Plans Departing 2
Arriving 6
Stats Elevation 999 ft / 304 m (AMSL)
Location 51.103949° -100.051848°
Runways 3
Magnetic Variation 5.329° E
Sunrise 2018-05-27 10:36:29 UTC / 2018-05-27 05:36:29 Local
Sunset 2018-05-28 02:41:11 UTC / 2018-05-27 21:41:11 Local
Advertisement - Login to hide

Runways

ID Width Length Bearing (true) Bearing (mag) Surface Threshold Offset Overrun Length
02 60 ft / 18 m 1,999 ft / 609 m 28.72° 23.39° Gravel 0 ft / 0 m 0 ft / 0 m
08 75 ft / 23 m 2,672 ft / 814 m 90.00° 84.67° Asphalt 0 ft / 0 m 0 ft / 0 m
14 150 ft / 46 m 4,928 ft / 1,502 m 149.79° 144.46° Asphalt 0 ft / 0 m 0 ft / 0 m
20 60 ft / 18 m 1,999 ft / 609 m 208.73° 203.40° Gravel 0 ft / 0 m 0 ft / 0 m
26 75 ft / 23 m 2,672 ft / 814 m 270.00° 264.67° Asphalt 0 ft / 0 m 0 ft / 0 m
32 150 ft / 46 m 4,928 ft / 1,502 m 329.80° 324.47° Asphalt 0 ft / 0 m 0 ft / 0 m

Map

Weather


0- 5 10 15 20 25 30 35+ Temperature / ° C

Clouds and Precipitation
Forecast for 2018-05-28 00:00 UTC. Updated 5 hours ago

Ground ~20,000 ft ~40,000 ft Winds

METAR

CYDN 280300Z AUTO 01003KT 9SM CLR 20/08 A2994 RMK SLP140 DENSITY ALT 1800FT

TAF

TAF CYDN 272338Z 2800/2812 VRB03KT P6SM FEW080 RMK FCST BASED ON AUTO OBS. NXT FCST BY 280600Z

Frequencies

Recorded 128.60 MHz AWOS
Tower 122.30 MHz MF WINNIPEG RDO
Warning: Do not use this data for real-world aviation or navigation. No guarantee of current accuracy is given.